createdAt,value
2023-12-14T00:00:02.812Z,93
2023-12-14T00:01:02.397Z,93
2023-12-14T00:02:02.717Z,93
2023-12-14T00:03:02.374Z,93
2023-12-14T00:04:02.385Z,93
2023-12-14T00:05:02.628Z,93
2023-12-14T00:06:02.379Z,93
2023-12-14T00:07:02.163Z,93
2023-12-14T00:08:02.270Z,93
2023-12-14T00:09:02.190Z,93
2023-12-14T00:10:02.961Z,93
2023-12-14T00:11:02.429Z,93
2023-12-14T00:12:02.505Z,93
2023-12-14T00:13:02.344Z,93
2023-12-14T00:15:02.970Z,93
2023-12-14T00:16:02.555Z,93
2023-12-14T00:17:02.065Z,93
2023-12-14T00:18:02.736Z,93
2023-12-14T00:19:02.697Z,93
2023-12-14T00:20:03.207Z,93
2023-12-14T00:21:02.359Z,93
2023-12-14T00:22:02.309Z,93
2023-12-14T00:23:02.757Z,93
2023-12-14T00:24:02.995Z,93
2023-12-14T00:25:02.565Z,93
2023-12-14T00:26:02.522Z,93
2023-12-14T00:27:02.222Z,93
2023-12-14T00:28:01.883Z,93
2023-12-14T00:29:02.911Z,93
2023-12-14T00:30:02.087Z,93
2023-12-14T00:32:02.326Z,93
2023-12-14T00:33:03.026Z,93
2023-12-14T00:34:02.626Z,93
2023-12-14T00:35:02.270Z,93
2023-12-14T00:36:02.837Z,93
2023-12-14T00:37:02.090Z,93
2023-12-14T00:38:02.313Z,93
2023-12-14T00:39:02.669Z,93
2023-12-14T00:40:02.512Z,93
2023-12-14T00:41:02.384Z,93
2023-12-14T00:42:02.389Z,93
2023-12-14T00:43:07.384Z,93
2023-12-14T00:44:03.439Z,93
2023-12-14T00:45:02.486Z,93
2023-12-14T00:47:02.113Z,93
2023-12-14T00:48:02.996Z,93
2023-12-14T00:49:03.042Z,93
2023-12-14T00:50:02.763Z,93
2023-12-14T00:51:01.918Z,93
2023-12-14T00:52:02.866Z,93
2023-12-14T00:53:01.822Z,93
2023-12-14T00:54:02.965Z,93
2023-12-14T00:55:02.426Z,93
2023-12-14T00:57:02.020Z,93
2023-12-14T00:58:02.668Z,93
2023-12-14T00:59:02.096Z,93
2023-12-14T01:00:02.643Z,93
2023-12-14T01:01:02.461Z,93
2023-12-14T01:02:02.538Z,93
2023-12-14T01:03:02.044Z,93
2023-12-14T01:04:02.743Z,93
2023-12-14T01:05:03.516Z,93
2023-12-14T01:06:01.926Z,93
2023-12-14T01:07:02.623Z,93
2023-12-14T01:08:02.423Z,93
2023-12-14T01:09:02.316Z,93
2023-12-14T01:10:02.097Z,93
2023-12-14T01:11:02.340Z,93
2023-12-14T01:12:02.254Z,92
2023-12-14T01:13:02.433Z,93
2023-12-14T01:14:02.614Z,93
2023-12-14T01:15:02.701Z,93
2023-12-14T01:16:02.478Z,93
2023-12-14T01:17:02.664Z,93
2023-12-14T01:18:02.103Z,93
2023-12-14T01:19:02.435Z,92
2023-12-14T01:20:02.789Z,93
2023-12-14T01:23:02.227Z,93
2023-12-14T01:24:02.898Z,93
2023-12-14T01:25:02.157Z,92
2023-12-14T01:26:02.998Z,92
2023-12-14T01:27:02.652Z,92
2023-12-14T01:28:02.453Z,92
2023-12-14T01:29:02.308Z,92
2023-12-14T01:30:02.380Z,92
2023-12-14T01:31:02.414Z,92
2023-12-14T01:32:02.872Z,92
2023-12-14T01:33:02.808Z,92
2023-12-14T01:34:02.672Z,92
2023-12-14T01:35:02.910Z,92
2023-12-14T01:36:02.697Z,92
2023-12-14T01:37:02.517Z,92
2023-12-14T01:38:02.653Z,92
2023-12-14T01:39:02.079Z,92
2023-12-14T01:40:02.630Z,92
2023-12-14T01:41:02.421Z,92
2023-12-14T01:42:02.707Z,92
2023-12-14T01:43:02.358Z,92
2023-12-14T01:44:02.357Z,92
2023-12-14T01:45:02.680Z,92
2023-12-14T01:47:02.117Z,92
2023-12-14T01:48:02.968Z,92
2023-12-14T01:49:02.974Z,92
2023-12-14T01:50:02.811Z,92
2023-12-14T01:51:02.501Z,92
2023-12-14T01:52:02.182Z,92
2023-12-14T01:53:02.921Z,92
2023-12-14T01:54:01.767Z,92
2023-12-14T01:55:02.155Z,92
2023-12-14T01:56:01.892Z,92
2023-12-14T01:57:02.108Z,92
2023-12-14T01:58:02.385Z,92
2023-12-14T01:59:02.120Z,92
2023-12-14T02:00:02.303Z,92
2023-12-14T02:02:02.605Z,92
2023-12-14T02:03:02.035Z,92
2023-12-14T02:04:02.342Z,92
2023-12-14T02:05:02.567Z,92
2023-12-14T02:06:02.800Z,92
2023-12-14T02:07:02.633Z,92
2023-12-14T02:08:02.320Z,92
2023-12-14T02:10:02.408Z,92
2023-12-14T02:12:02.543Z,92
2023-12-14T02:13:02.217Z,92
2023-12-14T02:14:02.987Z,92
2023-12-14T02:15:02.027Z,92
2023-12-14T02:16:02.797Z,92
2023-12-14T02:17:02.766Z,92
2023-12-14T02:18:02.413Z,92
2023-12-14T02:19:02.188Z,92
2023-12-14T02:20:02.325Z,92
2023-12-14T02:21:02.790Z,92
2023-12-14T02:22:02.420Z,92
2023-12-14T02:23:02.336Z,92
2023-12-14T02:25:02.416Z,92
2023-12-14T02:26:02.156Z,92
2023-12-14T02:27:04.050Z,92
2023-12-14T02:28:02.445Z,92
2023-12-14T02:29:02.516Z,92
2023-12-14T02:30:02.416Z,92
2023-12-14T02:31:02.533Z,92
2023-12-14T02:32:02.506Z,92
2023-12-14T02:33:02.637Z,92
2023-12-14T02:34:02.700Z,92
2023-12-14T02:35:02.289Z,92
2023-12-14T02:36:02.588Z,92
2023-12-14T02:37:02.642Z,92
2023-12-14T02:38:02.351Z,92
2023-12-14T02:39:02.230Z,92
2023-12-14T02:40:02.899Z,92
2023-12-14T02:41:02.635Z,92
2023-12-14T02:42:02.615Z,92
2023-12-14T02:43:03.871Z,92
2023-12-14T02:44:03.069Z,92
2023-12-14T02:45:01.996Z,92
2023-12-14T02:46:02.894Z,92
2023-12-14T02:47:02.830Z,92
2023-12-14T02:48:02.394Z,92
2023-12-14T02:49:01.970Z,92
2023-12-14T02:50:02.089Z,92
2023-12-14T02:51:02.341Z,92
2023-12-14T02:52:02.582Z,92
2023-12-14T02:53:02.026Z,92
2023-12-14T02:54:02.711Z,92
2023-12-14T02:55:02.358Z,92
2023-12-14T02:56:03.084Z,92
2023-12-14T02:57:02.391Z,92
2023-12-14T02:59:02.080Z,92
2023-12-14T03:00:02.460Z,92
2023-12-14T03:01:01.719Z,92
2023-12-14T03:02:02.307Z,92
2023-12-14T03:03:02.089Z,92
2023-12-14T03:04:02.494Z,92
2023-12-14T03:05:02.492Z,92
2023-12-14T03:06:01.960Z,92
2023-12-14T03:07:02.632Z,92
2023-12-14T03:08:02.983Z,92
2023-12-14T03:09:01.892Z,92
2023-12-14T03:10:02.552Z,92
2023-12-14T03:11:03.047Z,92
2023-12-14T03:12:02.097Z,92
2023-12-14T03:13:02.648Z,92
2023-12-14T03:14:02.838Z,92
2023-12-14T03:15:02.497Z,92
2023-12-14T03:16:02.514Z,92
2023-12-14T03:17:02.468Z,92
2023-12-14T03:18:02.320Z,92
2023-12-14T03:19:02.689Z,92
2023-12-14T03:20:02.341Z,92
2023-12-14T03:21:02.788Z,92
2023-12-14T03:22:02.234Z,92
2023-12-14T03:23:01.937Z,92
2023-12-14T03:24:02.308Z,92
2023-12-14T03:25:02.463Z,92
2023-12-14T03:26:02.397Z,92
2023-12-14T03:27:02.425Z,92
2023-12-14T03:28:02.281Z,92
2023-12-14T03:29:02.273Z,92
2023-12-14T03:30:02.115Z,92
2023-12-14T03:31:02.157Z,92
2023-12-14T03:32:02.295Z,92
2023-12-14T03:33:02.917Z,92
2023-12-14T03:34:02.199Z,92
2023-12-14T03:35:02.339Z,92
2023-12-14T03:36:02.182Z,92
2023-12-14T03:37:02.066Z,92
2023-12-14T03:38:02.726Z,92
2023-12-14T03:39:02.956Z,92
2023-12-14T03:40:02.838Z,92
2023-12-14T03:41:02.710Z,92
2023-12-14T03:42:02.331Z,92
2023-12-14T03:43:02.685Z,92
2023-12-14T03:44:02.336Z,92
2023-12-14T03:45:02.094Z,92
2023-12-14T03:46:02.445Z,92
2023-12-14T03:48:01.894Z,92
2023-12-14T03:49:02.341Z,92
2023-12-14T03:50:01.991Z,92
2023-12-14T03:51:02.894Z,92
2023-12-14T03:52:02.644Z,92
2023-12-14T03:53:02.201Z,92
2023-12-14T03:54:02.826Z,92
2023-12-14T03:55:02.687Z,92
2023-12-14T03:56:01.896Z,92
2023-12-14T03:57:02.510Z,92
2023-12-14T03:58:01.777Z,92
2023-12-14T03:59:02.857Z,92
2023-12-14T04:00:01.919Z,92
2023-12-14T04:01:02.166Z,92
2023-12-14T04:02:02.729Z,92
2023-12-14T04:03:02.818Z,92
2023-12-14T04:04:01.858Z,92
2023-12-14T04:05:02.155Z,92
2023-12-14T04:06:02.344Z,92
2023-12-14T04:07:02.718Z,92
2023-12-14T04:08:02.086Z,92
2023-12-14T04:09:02.055Z,92
2023-12-14T04:10:02.004Z,92
2023-12-14T04:11:02.016Z,92
2023-12-14T04:12:02.102Z,92
2023-12-14T04:13:02.184Z,92
2023-12-14T04:14:02.167Z,92
2023-12-14T04:15:02.382Z,92
2023-12-14T04:16:02.120Z,92
2023-12-14T04:17:02.498Z,92
2023-12-14T04:18:02.513Z,92
2023-12-14T04:19:02.524Z,92
2023-12-14T04:20:02.068Z,92
2023-12-14T04:21:02.522Z,92
2023-12-14T04:22:02.770Z,92
2023-12-14T04:23:02.202Z,92
2023-12-14T04:24:02.644Z,92
2023-12-14T04:25:01.985Z,92
2023-12-14T04:26:03.118Z,92
2023-12-14T04:27:02.354Z,92
2023-12-14T04:28:02.838Z,92
2023-12-14T04:30:02.393Z,92
2023-12-14T04:31:01.798Z,92
2023-12-14T04:32:02.002Z,92
2023-12-14T04:33:02.909Z,92
2023-12-14T04:34:02.320Z,92
2023-12-14T04:35:02.835Z,92
2023-12-14T04:36:02.767Z,92
2023-12-14T04:37:02.861Z,92
2023-12-14T04:38:03.165Z,92
2023-12-14T04:39:02.760Z,92
2023-12-14T04:40:01.986Z,92
2023-12-14T04:41:02.812Z,92
2023-12-14T04:43:02.867Z,92
2023-12-14T04:44:02.071Z,92
2023-12-14T04:45:02.676Z,92
2023-12-14T04:46:02.901Z,92
2023-12-14T04:48:02.384Z,92
2023-12-14T04:49:02.540Z,92
2023-12-14T04:50:02.612Z,92
2023-12-14T04:51:02.611Z,92
2023-12-14T04:52:02.043Z,92
2023-12-14T04:53:02.264Z,92
2023-12-14T04:55:02.322Z,92
2023-12-14T04:56:02.079Z,92
2023-12-14T04:57:02.159Z,92
2023-12-14T04:58:01.983Z,92
2023-12-14T04:59:02.163Z,92
2023-12-14T05:00:01.748Z,92
2023-12-14T05:01:02.539Z,92
2023-12-14T05:02:02.488Z,92
2023-12-14T05:03:02.112Z,92
2023-12-14T05:04:02.679Z,92
2023-12-14T05:05:02.003Z,92
2023-12-14T05:06:02.046Z,92
2023-12-14T05:07:02.172Z,92
2023-12-14T05:08:02.618Z,92
2023-12-14T05:09:02.815Z,92
2023-12-14T05:11:02.262Z,92
2023-12-14T05:12:02.519Z,92
2023-12-14T05:13:02.375Z,92
2023-12-14T05:14:02.309Z,92
2023-12-14T05:15:02.070Z,92
2023-12-14T05:16:02.054Z,92
2023-12-14T05:17:02.184Z,92
2023-12-14T05:18:02.369Z,92
2023-12-14T05:20:02.128Z,92
2023-12-14T05:22:02.555Z,92
2023-12-14T05:24:03.015Z,92
2023-12-14T05:25:02.651Z,92
2023-12-14T05:26:02.134Z,92
2023-12-14T05:27:02.873Z,92
2023-12-14T05:28:02.137Z,92
2023-12-14T05:29:02.619Z,92
2023-12-14T05:30:02.466Z,92
2023-12-14T05:31:02.963Z,92
2023-12-14T05:32:02.661Z,92
2023-12-14T05:33:02.180Z,92
2023-12-14T05:34:02.024Z,92
2023-12-14T05:35:02.118Z,92
2023-12-14T05:36:02.749Z,92
2023-12-14T05:37:02.589Z,92
2023-12-14T05:38:02.433Z,92
2023-12-14T05:39:02.907Z,92
2023-12-14T05:41:02.904Z,92
2023-12-14T05:42:02.537Z,92
2023-12-14T05:43:02.149Z,92
2023-12-14T05:44:02.185Z,92
2023-12-14T05:45:02.134Z,92
2023-12-14T05:46:01.994Z,92
2023-12-14T05:47:02.304Z,92
2023-12-14T05:48:02.677Z,92
2023-12-14T05:49:03.087Z,92
2023-12-14T05:50:02.176Z,92
2023-12-14T05:51:02.312Z,92
2023-12-14T05:52:02.949Z,92
2023-12-14T05:53:02.219Z,92
2023-12-14T05:54:02.513Z,92
2023-12-14T05:55:04.921Z,92
2023-12-14T05:56:02.741Z,92
2023-12-14T05:57:02.209Z,92
2023-12-14T05:58:02.442Z,92
2023-12-14T05:59:02.059Z,92
2023-12-14T06:00:02.418Z,92
2023-12-14T06:01:02.206Z,92
2023-12-14T06:02:02.440Z,92
2023-12-14T06:03:02.057Z,92
2023-12-14T06:04:02.779Z,92
2023-12-14T06:05:02.134Z,92
2023-12-14T06:06:02.880Z,92
2023-12-14T06:07:02.246Z,92
2023-12-14T06:08:02.147Z,92
2023-12-14T06:09:02.121Z,92
2023-12-14T06:10:02.678Z,92
2023-12-14T06:11:02.069Z,92
2023-12-14T06:12:02.108Z,92
2023-12-14T06:13:02.587Z,92
2023-12-14T06:14:02.526Z,92
2023-12-14T06:15:02.595Z,92
2023-12-14T06:16:02.716Z,92
2023-12-14T06:17:02.632Z,92
2023-12-14T06:18:03.032Z,92
2023-12-14T06:19:02.800Z,92
2023-12-14T06:20:02.494Z,92
2023-12-14T06:22:02.587Z,92
2023-12-14T06:23:02.530Z,92
2023-12-14T06:24:02.993Z,92
2023-12-14T06:25:02.317Z,92
2023-12-14T06:26:02.992Z,92
2023-12-14T06:27:03.009Z,92
2023-12-14T06:28:02.529Z,92
2023-12-14T06:29:01.812Z,92
2023-12-14T06:30:02.072Z,92
2023-12-14T06:31:01.788Z,92
2023-12-14T06:32:02.866Z,92
2023-12-14T06:33:02.474Z,92
2023-12-14T06:34:02.801Z,92
2023-12-14T06:35:01.772Z,92
2023-12-14T06:36:02.287Z,92
2023-12-14T06:37:02.467Z,92
2023-12-14T06:38:02.981Z,92
2023-12-14T06:39:07.929Z,92
2023-12-14T06:40:02.847Z,92
2023-12-14T06:41:03.003Z,92
2023-12-14T06:42:01.996Z,92
2023-12-14T06:43:02.069Z,92
2023-12-14T06:44:02.291Z,92
2023-12-14T06:45:02.411Z,92
2023-12-14T06:46:03.066Z,92
2023-12-14T06:47:02.408Z,92
2023-12-14T06:49:02.931Z,92
2023-12-14T06:50:02.078Z,92
2023-12-14T06:51:02.695Z,92
2023-12-14T06:52:02.126Z,92
2023-12-14T06:53:01.939Z,92
2023-12-14T06:54:02.835Z,92
2023-12-14T06:55:02.320Z,92
2023-12-14T06:56:02.711Z,92
2023-12-14T06:57:02.154Z,92
2023-12-14T06:58:02.700Z,92
2023-12-14T06:59:02.570Z,92
2023-12-14T07:00:02.667Z,92
2023-12-14T07:01:01.895Z,92
2023-12-14T07:03:02.465Z,92
2023-12-14T07:04:02.225Z,92
2023-12-14T07:05:02.212Z,92
2023-12-14T07:06:02.853Z,92
2023-12-14T07:07:02.617Z,92
2023-12-14T07:08:02.226Z,92
2023-12-14T07:09:02.725Z,92
2023-12-14T07:10:02.605Z,92
2023-12-14T07:11:02.408Z,92
2023-12-14T07:12:03.055Z,92
2023-12-14T07:13:02.076Z,92
2023-12-14T07:14:02.304Z,92
2023-12-14T07:15:02.349Z,92
2023-12-14T07:16:02.010Z,92
2023-12-14T07:17:02.175Z,92
2023-12-14T07:19:02.607Z,92
2023-12-14T07:20:02.586Z,92
2023-12-14T07:21:01.931Z,92
2023-12-14T07:22:02.192Z,92
2023-12-14T07:23:02.570Z,92
2023-12-14T07:24:02.108Z,92
2023-12-14T07:25:01.717Z,92
2023-12-14T07:26:03.048Z,92
2023-12-14T07:27:02.265Z,92
2023-12-14T07:28:02.752Z,92
2023-12-14T07:29:02.684Z,92
2023-12-14T07:30:03.066Z,92
2023-12-14T07:31:02.270Z,92
2023-12-14T07:32:03.342Z,92
2023-12-14T07:33:02.366Z,92
2023-12-14T07:34:02.296Z,92
2023-12-14T07:36:02.570Z,92
2023-12-14T07:38:01.960Z,92
2023-12-14T07:39:02.701Z,92
2023-12-14T07:40:02.386Z,92
2023-12-14T07:41:02.467Z,92
2023-12-14T07:42:01.978Z,92
2023-12-14T07:43:01.926Z,93
2023-12-14T07:44:05.503Z,93
2023-12-14T07:45:01.871Z,93
2023-12-14T07:46:02.014Z,93
2023-12-14T07:47:02.956Z,93
2023-12-14T07:48:02.697Z,93
2023-12-14T07:49:02.178Z,93
2023-12-14T07:50:02.900Z,93
2023-12-14T07:52:02.475Z,93
2023-12-14T07:53:02.519Z,93
2023-12-14T07:54:02.112Z,93
2023-12-14T07:56:02.022Z,93
2023-12-14T07:57:02.117Z,93
2023-12-14T07:58:08.115Z,93
2023-12-14T07:59:02.288Z,93
2023-12-14T08:00:02.095Z,92
2023-12-14T08:01:02.024Z,93
2023-12-14T08:02:02.265Z,92
2023-12-14T08:03:02.864Z,93
2023-12-14T08:04:02.163Z,93
2023-12-14T08:05:02.461Z,93
2023-12-14T08:06:02.024Z,93
2023-12-14T08:08:02.652Z,93
2023-12-14T08:09:02.753Z,93
2023-12-14T08:10:02.681Z,93
2023-12-14T08:13:02.669Z,93
2023-12-14T08:14:02.422Z,93
2023-12-14T08:15:02.578Z,93
2023-12-14T08:16:02.559Z,93
2023-12-14T08:17:02.554Z,93
2023-12-14T08:18:02.910Z,93
2023-12-14T08:19:02.718Z,93
2023-12-14T08:20:02.311Z,93
2023-12-14T08:21:02.607Z,93
2023-12-14T08:22:02.255Z,93
2023-12-14T08:23:02.682Z,93
2023-12-14T08:24:02.451Z,93
2023-12-14T08:25:02.267Z,93
2023-12-14T08:26:03.239Z,93
2023-12-14T08:27:02.667Z,93
2023-12-14T08:28:04.952Z,93
2023-12-14T08:29:02.858Z,93
2023-12-14T08:30:02.254Z,93
2023-12-14T08:31:02.227Z,93
2023-12-14T08:32:02.792Z,93
2023-12-14T08:33:02.207Z,93
2023-12-14T08:34:02.605Z,93
2023-12-14T08:35:03.162Z,93
2023-12-14T08:36:01.798Z,93
2023-12-14T08:37:02.730Z,93
2023-12-14T08:38:02.778Z,93
2023-12-14T08:39:02.053Z,93
2023-12-14T08:40:02.108Z,93
2023-12-14T08:41:02.248Z,93
2023-12-14T08:42:02.609Z,93
2023-12-14T08:43:01.912Z,93
2023-12-14T08:44:02.829Z,92
2023-12-14T08:45:02.579Z,93
2023-12-14T08:46:02.733Z,93
2023-12-14T08:47:02.879Z,93
2023-12-14T08:49:02.225Z,92
2023-12-14T08:50:02.790Z,93
2023-12-14T08:51:02.619Z,92
2023-12-14T08:52:02.650Z,92
2023-12-14T08:53:02.119Z,93
2023-12-14T08:54:02.521Z,109
2023-12-14T08:55:02.143Z,93
2023-12-14T08:56:02.762Z,92
2023-12-14T08:57:02.834Z,92
2023-12-14T08:58:02.248Z,92
2023-12-14T08:59:02.694Z,92
2023-12-14T09:00:02.280Z,92
2023-12-14T09:01:01.950Z,92
2023-12-14T09:03:02.168Z,92
2023-12-14T09:04:02.449Z,92
2023-12-14T09:05:02.925Z,92
2023-12-14T09:06:03.215Z,92
2023-12-14T09:07:02.459Z,92
2023-12-14T09:08:02.636Z,92
2023-12-14T09:09:02.418Z,92
2023-12-14T09:10:02.759Z,92
2023-12-14T09:11:01.993Z,92
2023-12-14T09:12:02.648Z,92
2023-12-14T09:13:02.537Z,92
2023-12-14T09:14:02.146Z,92
2023-12-14T09:15:02.007Z,92
2023-12-14T09:16:02.445Z,92
2023-12-14T09:17:02.736Z,92
2023-12-14T09:18:02.572Z,92
2023-12-14T09:19:02.740Z,92
2023-12-14T09:20:02.255Z,92
2023-12-14T09:21:01.955Z,92
2023-12-14T09:22:02.857Z,92
2023-12-14T09:23:02.576Z,92
2023-12-14T09:24:02.219Z,92
2023-12-14T09:25:02.229Z,92
2023-12-14T09:26:02.803Z,92
2023-12-14T09:28:02.066Z,92
2023-12-14T09:29:01.916Z,92
2023-12-14T09:30:02.305Z,92
2023-12-14T09:31:03.034Z,92
2023-12-14T09:32:02.818Z,92
2023-12-14T09:33:02.336Z,92
2023-12-14T09:34:02.698Z,92
2023-12-14T09:35:02.256Z,92
2023-12-14T09:36:02.500Z,92
2023-12-14T09:37:02.176Z,92
2023-12-14T09:38:02.347Z,92
2023-12-14T09:39:02.466Z,92
2023-12-14T09:40:02.311Z,92
2023-12-14T09:41:02.582Z,92
2023-12-14T09:42:02.292Z,92
2023-12-14T09:43:03.442Z,92
2023-12-14T09:44:02.426Z,92
2023-12-14T09:45:02.604Z,92
2023-12-14T09:46:02.569Z,92
2023-12-14T09:47:02.361Z,92
2023-12-14T09:48:02.607Z,92
2023-12-14T09:49:03.975Z,92
2023-12-14T09:50:02.438Z,92
2023-12-14T09:51:02.477Z,92
2023-12-14T09:52:02.593Z,92
2023-12-14T09:53:02.752Z,92
2023-12-14T09:54:02.989Z,92
2023-12-14T09:55:02.499Z,92
2023-12-14T09:56:02.304Z,92
2023-12-14T09:57:02.597Z,91
2023-12-14T09:58:02.581Z,91
2023-12-14T09:59:02.170Z,91
2023-12-14T10:00:03.321Z,91
2023-12-14T10:01:02.179Z,91
2023-12-14T10:02:02.331Z,91
2023-12-14T10:03:01.835Z,91
2023-12-14T10:04:02.812Z,91
2023-12-14T10:05:02.491Z,91
2023-12-14T10:09:02.016Z,91
2023-12-14T10:10:02.110Z,91
2023-12-14T10:12:02.222Z,91
2023-12-14T10:13:01.954Z,91
2023-12-14T10:14:02.486Z,91
2023-12-14T10:15:02.345Z,91
2023-12-14T10:16:01.998Z,91
2023-12-14T10:17:03.868Z,91
2023-12-14T10:18:02.532Z,91
2023-12-14T10:19:02.718Z,91
2023-12-14T10:20:02.799Z,91
2023-12-14T10:21:02.390Z,91
2023-12-14T10:22:02.388Z,91
2023-12-14T10:23:02.490Z,91
2023-12-14T10:24:02.953Z,91
2023-12-14T10:25:02.545Z,91
2023-12-14T10:26:02.018Z,91
2023-12-14T10:27:02.425Z,91
2023-12-14T10:28:02.315Z,91
2023-12-14T10:29:02.567Z,91
2023-12-14T10:30:01.968Z,91
2023-12-14T10:31:02.032Z,91
2023-12-14T10:32:03.016Z,91
2023-12-14T10:33:02.742Z,91
2023-12-14T10:34:02.299Z,91
2023-12-14T10:35:02.961Z,91
2023-12-14T10:36:02.043Z,91
2023-12-14T10:37:04.382Z,91
2023-12-14T10:38:02.190Z,91
2023-12-14T10:39:01.947Z,90
2023-12-14T10:40:02.603Z,90
2023-12-14T10:41:01.692Z,90
2023-12-14T10:42:08.265Z,90
2023-12-14T10:43:02.465Z,90
2023-12-14T10:44:19.028Z,90
2023-12-14T10:45:15.428Z,90
2023-12-14T10:46:02.829Z,90
2023-12-14T10:47:02.328Z,90
2023-12-14T10:48:05.323Z,90
2023-12-14T10:49:02.661Z,90
2023-12-14T10:50:02.364Z,90
2023-12-14T10:51:02.611Z,90
2023-12-14T10:52:02.386Z,90
2023-12-14T10:53:02.885Z,90
2023-12-14T10:54:02.236Z,90
2023-12-14T10:55:03.005Z,90
2023-12-14T10:56:02.453Z,90
2023-12-14T10:57:02.724Z,90
2023-12-14T10:58:02.471Z,90
2023-12-14T10:59:02.318Z,90
2023-12-14T11:00:02.137Z,90
2023-12-14T11:01:02.660Z,90
2023-12-14T11:02:02.048Z,90
2023-12-14T11:03:02.546Z,90
2023-12-14T11:05:02.023Z,90
2023-12-14T11:06:09.918Z,90
2023-12-14T11:07:02.667Z,90
2023-12-14T11:08:02.106Z,90
2023-12-14T11:09:02.751Z,90
2023-12-14T11:10:02.605Z,90
2023-12-14T11:11:02.518Z,90
2023-12-14T11:12:02.139Z,90
2023-12-14T11:13:02.000Z,90
2023-12-14T11:14:02.882Z,90
2023-12-14T11:15:02.186Z,90
2023-12-14T11:16:02.703Z,90
2023-12-14T11:17:02.197Z,90
2023-12-14T11:18:02.904Z,90
2023-12-14T11:19:02.366Z,90
2023-12-14T11:20:02.896Z,90
2023-12-14T11:21:02.868Z,90
2023-12-14T11:22:02.628Z,90
2023-12-14T11:23:02.673Z,90
2023-12-14T11:26:02.734Z,90
2023-12-14T11:27:02.063Z,90
2023-12-14T11:29:02.705Z,89
2023-12-14T11:30:02.844Z,89
2023-12-14T11:31:02.128Z,89
2023-12-14T11:32:02.169Z,89
2023-12-14T11:33:01.988Z,89
2023-12-14T11:34:03.019Z,89
2023-12-14T11:35:02.395Z,89
2023-12-14T11:36:02.335Z,89
2023-12-14T11:37:02.777Z,89
2023-12-14T11:38:02.156Z,89
2023-12-14T11:39:02.721Z,89
2023-12-14T11:40:02.158Z,89
2023-12-14T11:41:02.001Z,89
2023-12-14T11:42:02.291Z,89
2023-12-14T11:43:02.164Z,89
2023-12-14T11:44:02.286Z,89
2023-12-14T11:45:02.303Z,89
2023-12-14T11:46:02.556Z,89
2023-12-14T11:47:02.178Z,89
2023-12-14T11:48:02.493Z,89
2023-12-14T11:49:02.284Z,88
2023-12-14T11:50:02.430Z,88
2023-12-14T11:51:02.275Z,88
2023-12-14T11:52:02.228Z,88
2023-12-14T11:53:02.200Z,88
2023-12-14T11:54:02.268Z,88
2023-12-14T11:55:02.090Z,88
2023-12-14T11:56:01.968Z,88
2023-12-14T11:57:01.605Z,88
2023-12-14T11:58:02.146Z,88
2023-12-14T11:59:02.193Z,88
2023-12-14T12:01:02.208Z,88
2023-12-14T12:02:07.653Z,88
2023-12-14T12:03:02.413Z,88
2023-12-14T12:04:02.158Z,88
2023-12-14T12:06:02.626Z,88
2023-12-14T12:07:02.704Z,88
2023-12-14T12:08:02.533Z,88
2023-12-14T12:09:02.757Z,88
2023-12-14T12:10:02.499Z,88
2023-12-14T12:11:02.590Z,88
2023-12-14T12:12:02.670Z,88
2023-12-14T12:13:02.151Z,88
2023-12-14T12:14:02.471Z,88
2023-12-14T12:15:02.730Z,88
2023-12-14T12:16:02.231Z,88
2023-12-14T12:17:02.188Z,88
2023-12-14T12:18:02.745Z,88
2023-12-14T12:19:02.177Z,88
2023-12-14T12:20:02.081Z,88
2023-12-14T12:21:02.273Z,88
2023-12-14T12:22:02.994Z,88
2023-12-14T12:23:02.280Z,88
2023-12-14T12:24:07.196Z,88
2023-12-14T12:25:11.980Z,88
2023-12-14T12:26:02.012Z,88
2023-12-14T12:27:02.410Z,88
2023-12-14T12:28:02.097Z,88
2023-12-14T12:29:02.731Z,88
2023-12-14T12:30:02.599Z,88
2023-12-14T12:31:02.738Z,88
2023-12-14T12:32:02.858Z,88
2023-12-14T12:33:02.703Z,88
2023-12-14T12:34:02.511Z,88
2023-12-14T12:35:02.024Z,88
2023-12-14T12:36:02.068Z,88
2023-12-14T12:37:02.680Z,88
2023-12-14T12:38:02.621Z,88
2023-12-14T12:39:02.522Z,88
2023-12-14T12:40:03.091Z,88
2023-12-14T12:41:02.517Z,88
2023-12-14T12:42:02.832Z,87
2023-12-14T12:43:01.952Z,87
2023-12-14T12:44:02.418Z,87
2023-12-14T12:45:02.547Z,87
2023-12-14T12:46:02.818Z,87
2023-12-14T12:47:08.769Z,87
2023-12-14T12:48:02.519Z,87
2023-12-14T12:49:02.389Z,87
2023-12-14T12:50:02.020Z,87
2023-12-14T12:51:02.258Z,87
2023-12-14T12:52:02.703Z,87
2023-12-14T12:53:02.132Z,87
2023-12-14T12:54:10.133Z,87
2023-12-14T12:55:02.380Z,87
2023-12-14T12:56:02.474Z,87
2023-12-14T12:57:02.929Z,87
2023-12-14T12:58:02.832Z,87
2023-12-14T12:59:02.162Z,87
2023-12-14T13:00:02.726Z,87
2023-12-14T13:01:02.217Z,87
2023-12-14T13:02:02.536Z,87
2023-12-14T13:03:02.807Z,87
2023-12-14T13:04:02.284Z,87
2023-12-14T13:05:02.353Z,87
2023-12-14T13:06:02.865Z,87
2023-12-14T13:07:02.768Z,87
2023-12-14T13:08:02.041Z,87
2023-12-14T13:09:02.622Z,87
2023-12-14T13:10:06.016Z,88
2023-12-14T13:11:02.211Z,88
2023-12-14T13:12:02.345Z,88
2023-12-14T13:13:02.596Z,88
2023-12-14T13:14:02.539Z,88
2023-12-14T13:15:02.756Z,88
2023-12-14T13:16:02.883Z,87
2023-12-14T13:17:02.337Z,87
2023-12-14T13:18:02.392Z,87
2023-12-14T13:19:02.394Z,87
2023-12-14T13:20:02.004Z,87
2023-12-14T13:21:02.687Z,87
2023-12-14T13:22:02.786Z,87
2023-12-14T13:23:02.173Z,87
2023-12-14T13:24:02.622Z,87
2023-12-14T13:25:02.044Z,87
2023-12-14T13:26:02.277Z,87
2023-12-14T13:28:02.261Z,87
2023-12-14T13:29:02.335Z,87
2023-12-14T13:30:02.030Z,87
2023-12-14T13:31:02.384Z,87
2023-12-14T13:32:01.913Z,87
2023-12-14T13:33:02.185Z,87
2023-12-14T13:34:02.324Z,87
2023-12-14T13:35:02.752Z,87
2023-12-14T13:36:01.657Z,87
2023-12-14T13:37:02.491Z,87
2023-12-14T13:38:02.779Z,87
2023-12-14T13:39:02.930Z,87
2023-12-14T13:40:02.377Z,87
2023-12-14T13:41:02.612Z,87
2023-12-14T13:42:02.127Z,87
2023-12-14T13:43:07.247Z,87
2023-12-14T13:44:02.822Z,87
2023-12-14T13:45:02.418Z,87
2023-12-14T13:46:14.287Z,87
2023-12-14T13:47:02.593Z,87
2023-12-14T13:48:02.547Z,87
2023-12-14T13:49:02.382Z,87
2023-12-14T13:50:02.805Z,87
2023-12-14T13:51:02.211Z,87
2023-12-14T13:52:02.408Z,87
2023-12-14T13:53:02.479Z,87
2023-12-14T13:54:02.118Z,87
2023-12-14T13:55:02.657Z,87
2023-12-14T13:56:02.487Z,87
2023-12-14T13:57:02.742Z,87
2023-12-14T13:58:02.845Z,87
2023-12-14T13:59:02.532Z,87
2023-12-14T14:00:02.331Z,87
2023-12-14T14:01:02.926Z,87
2023-12-14T14:02:02.482Z,87
2023-12-14T14:03:02.741Z,87
2023-12-14T14:04:02.766Z,87
2023-12-14T14:05:02.684Z,87
2023-12-14T14:06:02.366Z,87
2023-12-14T14:07:02.677Z,87
2023-12-14T14:08:02.491Z,87
2023-12-14T14:09:02.833Z,87
2023-12-14T14:10:01.976Z,87
2023-12-14T14:11:02.321Z,87
2023-12-14T14:12:02.649Z,87
2023-12-14T14:13:02.289Z,87
2023-12-14T14:14:02.722Z,87
2023-12-14T14:15:02.221Z,87
2023-12-14T14:16:01.742Z,87
2023-12-14T14:17:02.748Z,87
2023-12-14T14:18:02.794Z,87
2023-12-14T14:19:02.147Z,87
2023-12-14T14:20:02.985Z,87
2023-12-14T14:21:02.587Z,87
2023-12-14T14:22:02.457Z,87
2023-12-14T14:23:02.409Z,87
2023-12-14T14:24:02.287Z,87
2023-12-14T14:25:02.784Z,87
2023-12-14T14:26:02.933Z,87
2023-12-14T14:27:02.413Z,87
2023-12-14T14:28:02.488Z,87
2023-12-14T14:29:02.348Z,87
2023-12-14T14:30:02.371Z,87
2023-12-14T14:31:02.099Z,87
2023-12-14T14:32:02.531Z,87
2023-12-14T14:33:02.184Z,87
2023-12-14T14:34:02.209Z,87
2023-12-14T14:35:02.429Z,87
2023-12-14T14:36:02.896Z,87
2023-12-14T14:37:02.362Z,87
2023-12-14T14:38:01.956Z,87
2023-12-14T14:39:02.931Z,87
2023-12-14T14:40:02.393Z,87
2023-12-14T14:41:02.024Z,87
2023-12-14T14:42:02.042Z,87
2023-12-14T14:43:02.071Z,87
2023-12-14T14:44:02.259Z,87
2023-12-14T14:45:02.854Z,87
2023-12-14T14:46:02.061Z,87
2023-12-14T14:47:02.246Z,87
2023-12-14T14:48:02.088Z,87
2023-12-14T14:49:02.657Z,87
2023-12-14T14:50:02.723Z,87
2023-12-14T14:51:02.579Z,87
2023-12-14T14:52:02.346Z,87
2023-12-14T14:53:02.665Z,87
2023-12-14T14:54:01.815Z,87
2023-12-14T14:56:02.867Z,87
2023-12-14T14:57:02.085Z,87
2023-12-14T14:58:02.688Z,88
2023-12-14T14:59:02.484Z,88
2023-12-14T15:00:02.419Z,88
2023-12-14T15:01:02.869Z,88
2023-12-14T15:02:02.716Z,88
2023-12-14T15:03:02.542Z,88